Elettra — H9AK — position and weather

sailwx.info

Track history (hours):
 
Tides and Currents Weather Stations Pressure Air Temp Water Temp Dewpoint Dewpoint Depression Visibility Wind Speed Wind Dir Waves Ship Positions

Elettra

Last reported at 2017-Jan-11 17:24 UTC. Time now 2017-Feb-19 21:07 UTC.
Position S 24°17' E 154°09'.
Warning: this ship's position is 39 days out of date.

Length 254 m; draft 13.5 m.

Type: Cargo ship. MMSI: 371188000.

Date/timePositionNaut miles runAvg speedWind from/ knotsBaromVisibWave heightAir tempDewpointWater temp
2017-Jan-11 17:24S 24°17' E 154°09'132 9.5
2017-Jan-11 03:33S 26°28' E 153°55'10 9.6
2017-Jan-11 02:33S 26°38' E 153°54'9 9.2
2017-Jan-11 01:32S 26°47' E 153°53'11 8.8
2017-Jan-11 00:15S 26°58' E 153°52'46 9.0
2017-Jan-10 19:05S 27°45' E 153°52'5 8.3
2017-Jan-10 18:28S 27°50' E 153°52'33 8.2
2017-Jan-10 14:28S 28°23' E 153°52'257 8.3
2017-Jan-09 07:33S 32°33' E 152°47'8 8.3
2017-Jan-09 06:33S 32°41' E 152°43'9 8.9
2017-Jan-09 05:33S 32°46' E 152°34'9 9.3
2017-Jan-09 04:33S 32°50' E 152°25'10 9.8
2017-Jan-09 03:33S 32°55' E 152°15'1010.0
2017-Jan-09 02:33S 32°57' E 152°03'10 9.9
2017-Jan-09 01:33S 32°56' E 151°51'4 4.4
2017-Jan-09 00:33S 32°54' E 151°46'2 1.6
2017-Jan-08 23:32S 32°53' E 151°45'0 0.0
2017-Jan-08 22:29S 32°53' E 151°45'0 0.0
2017-Jan-08 20:23S 32°53' E 151°45'0 0.0
2017-Jan-08 19:14S 32°53' E 151°45'0 0.0
2017-Jan-08 18:32S 32°53' E 151°45'0 0.0
2017-Jan-08 17:32S 32°53' E 151°45'0 0.0
2017-Jan-08 15:11S 32°53' E 151°45'0 0.0
2017-Jan-08 14:32S 32°53' E 151°45'0 0.0
2017-Jan-08 13:32S 32°53' E 151°45'0 0.0
2017-Jan-08 12:23S 32°53' E 151°45'0 0.0
2017-Jan-08 09:29S 32°53' E 151°45'0 0.0
2017-Jan-08 04:32S 32°53' E 151°45'0 0.0
2017-Jan-08 03:29S 32°53' E 151°45'0 0.0
2017-Jan-08 02:29S 32°53' E 151°45'0 0.0
2017-Jan-08 01:11S 32°53' E 151°45'1 0.8
2017-Jan-08 00:33S 32°53' E 151°46'4 3.8
2017-Jan-07 23:33S 32°55' E 151°49'8 8.2
2017-Jan-07 22:34S 32°57' E 151°59'1414.2
2017-Jan-07 21:34S 32°53' E 152°15'5 4.5
2017-Jan-07 20:33S 32°53' E 152°21'1313.2
2017-Jan-07 19:33S 32°46' E 152°34'1413.6
2017-Jan-07 18:33S 32°40' E 152°49'28812.9
2017-Jan-06 20:16S 27°57' E 153°52'1013.6
2017-Jan-06 19:33S 27°47' E 153°52'4313.5
2017-Jan-06 16:21S 27°04' E 153°52'1114.1
2017-Jan-06 15:33S 26°53' E 153°53'  
Track history (hours):
 
Tides and Currents Weather Stations Pressure Air Temp Water Temp Dewpoint Dewpoint Depression Visibility Wind Speed Wind Dir Waves Ship Positions

Elettra

Last reported at 2017-Jan-11 17:24 UTC. Time now 2017-Feb-19 21:07 UTC.
Position S 24°17' E 154°09'.
Warning: this ship's position is 39 days out of date.

Length 254 m; draft 13.5 m.

Type: Cargo ship. MMSI: 371188000.

Date/timePositionNaut miles runAvg speedWind from/ knotsBaromVisibWave heightAir tempDewpointWater temp
2017-Jan-11 17:24S 24°17' E 154°09'132 9.5
2017-Jan-11 03:33S 26°28' E 153°55'10 9.6
2017-Jan-11 02:33S 26°38' E 153°54'9 9.2
2017-Jan-11 01:32S 26°47' E 153°53'11 8.8
2017-Jan-11 00:15S 26°58' E 153°52'46 9.0
2017-Jan-10 19:05S 27°45' E 153°52'5 8.3
2017-Jan-10 18:28S 27°50' E 153°52'33 8.2
2017-Jan-10 14:28S 28°23' E 153°52'257 8.3
2017-Jan-09 07:33S 32°33' E 152°47'8 8.3
2017-Jan-09 06:33S 32°41' E 152°43'9 8.9
2017-Jan-09 05:33S 32°46' E 152°34'9 9.3
2017-Jan-09 04:33S 32°50' E 152°25'10 9.8
2017-Jan-09 03:33S 32°55' E 152°15'1010.0
2017-Jan-09 02:33S 32°57' E 152°03'10 9.9
2017-Jan-09 01:33S 32°56' E 151°51'4 4.4
2017-Jan-09 00:33S 32°54' E 151°46'2 1.6
2017-Jan-08 23:32S 32°53' E 151°45'0 0.0
2017-Jan-08 22:29S 32°53' E 151°45'0 0.0
2017-Jan-08 20:23S 32°53' E 151°45'0 0.0
2017-Jan-08 19:14S 32°53' E 151°45'0 0.0
2017-Jan-08 18:32S 32°53' E 151°45'0 0.0
2017-Jan-08 17:32S 32°53' E 151°45'0 0.0
2017-Jan-08 15:11S 32°53' E 151°45'0 0.0
2017-Jan-08 14:32S 32°53' E 151°45'0 0.0
2017-Jan-08 13:32S 32°53' E 151°45'0 0.0
2017-Jan-08 12:23S 32°53' E 151°45'0 0.0
2017-Jan-08 09:29S 32°53' E 151°45'0 0.0
2017-Jan-08 04:32S 32°53' E 151°45'0 0.0
2017-Jan-08 03:29S 32°53' E 151°45'0 0.0
2017-Jan-08 02:29S 32°53' E 151°45'0 0.0
2017-Jan-08 01:11S 32°53' E 151°45'1 0.8
2017-Jan-08 00:33S 32°53' E 151°46'4 3.8
2017-Jan-07 23:33S 32°55' E 151°49'8 8.2
2017-Jan-07 22:34S 32°57' E 151°59'1414.2
2017-Jan-07 21:34S 32°53' E 152°15'5 4.5
2017-Jan-07 20:33S 32°53' E 152°21'1313.2
2017-Jan-07 19:33S 32°46' E 152°34'1413.6
2017-Jan-07 18:33S 32°40' E 152°49'28812.9
2017-Jan-06 20:16S 27°57' E 153°52'1013.6
2017-Jan-06 19:33S 27°47' E 153°52'4313.5
2017-Jan-06 16:21S 27°04' E 153°52'1114.1
2017-Jan-06 15:33S 26°53' E 153°53'  

Dump ship's entire track history